sensor_id;sensor_type;location;lat;lon;timestamp;P1;durP1;ratioP1;P2;durP2;ratioP2
10440;SDS011;5268;49.346;9.522;2022-08-19T03:24:33;18.38;;;16.48;;
10440;SDS011;5268;49.346;9.522;2022-08-19T03:29:37;18.75;;;16.85;;
10440;SDS011;5268;49.346;9.522;2022-08-19T03:34:39;19.38;;;17.15;;
10440;SDS011;5268;49.346;9.522;2022-08-19T03:39:42;19.13;;;17.05;;
10440;SDS011;5268;49.346;9.522;2022-08-19T03:44:44;19.45;;;16.55;;
10440;SDS011;5268;49.346;9.522;2022-08-19T03:49:46;18.65;;;16.75;;
10440;SDS011;5268;49.346;9.522;2022-08-19T03:54:50;21.50;;;18.98;;
10440;SDS011;5268;49.346;9.522;2022-08-19T03:59:51;21.95;;;17.95;;
10440;SDS011;5268;49.346;9.522;2022-08-19T04:04:53;20.13;;;18.02;;
10440;SDS011;5268;49.346;9.522;2022-08-19T04:09:57;21.80;;;19.25;;
10440;SDS011;5268;49.346;9.522;2022-08-19T04:14:59;24.13;;;19.92;;
10440;SDS011;5268;49.346;9.522;2022-08-19T04:20:01;22.35;;;18.20;;
10440;SDS011;5268;49.346;9.522;2022-08-19T04:25:05;19.58;;;17.38;;
10440;SDS011;5268;49.346;9.522;2022-08-19T04:30:08;20.80;;;18.42;;
10440;SDS011;5268;49.346;9.522;2022-08-19T04:35:12;27.02;;;20.58;;
10440;SDS011;5268;49.346;9.522;2022-08-19T04:40:15;21.27;;;18.85;;
10440;SDS011;5268;49.346;9.522;2022-08-19T04:45:35;21.33;;;18.67;;
10440;SDS011;5268;49.346;9.522;2022-08-19T04:50:39;20.70;;;18.15;;
10440;SDS011;5268;49.346;9.522;2022-08-19T04:55:44;20.40;;;17.73;;
10440;SDS011;5268;49.346;9.522;2022-08-19T05:00:46;21.42;;;18.13;;
10440;SDS011;5268;49.346;9.522;2022-08-19T05:05:48;19.40;;;17.30;;
10440;SDS011;5268;49.346;9.522;2022-08-19T05:10:51;21.58;;;18.10;;
10440;SDS011;5268;49.346;9.522;2022-08-19T05:15:53;22.05;;;18.55;;
10440;SDS011;5268;49.346;9.522;2022-08-19T05:20:56;22.83;;;20.05;;
10440;SDS011;5268;49.346;9.522;2022-08-19T05:26:17;24.00;;;20.13;;
10440;SDS011;5268;49.346;9.522;2022-08-19T05:31:19;25.08;;;19.88;;
10440;SDS011;5268;49.346;9.522;2022-08-19T05:36:21;25.63;;;21.02;;
10440;SDS011;5268;49.346;9.522;2022-08-19T05:41:24;22.52;;;19.67;;
10440;SDS011;5268;49.346;9.522;2022-08-19T05:46:30;24.92;;;20.02;;
10440;SDS011;5268;49.346;9.522;2022-08-19T05:51:33;22.52;;;18.88;;
10440;SDS011;5268;49.346;9.522;2022-08-19T05:56:38;25.23;;;19.25;;
10440;SDS011;5268;49.346;9.522;2022-08-19T06:01:42;20.17;;;17.40;;
10440;SDS011;5268;49.346;9.522;2022-08-19T06:06:45;20.92;;;17.58;;
10440;SDS011;5268;49.346;9.522;2022-08-19T06:11:51;22.55;;;18.40;;
10440;SDS011;5268;49.346;9.522;2022-08-19T06:16:54;21.90;;;18.90;;
10440;SDS011;5268;49.346;9.522;2022-08-19T06:21:57;21.35;;;17.52;;
10440;SDS011;5268;49.346;9.522;2022-08-19T06:27:02;20.58;;;18.38;;
10440;SDS011;5268;49.346;9.522;2022-08-19T06:32:05;19.52;;;17.52;;
10440;SDS011;5268;49.346;9.522;2022-08-19T06:37:07;26.95;;;19.65;;
10440;SDS011;5268;49.346;9.522;2022-08-19T06:42:11;20.17;;;17.95;;
10440;SDS011;5268;49.346;9.522;2022-08-19T06:47:17;20.33;;;17.42;;
10440;SDS011;5268;49.346;9.522;2022-08-19T06:52:21;19.52;;;17.52;;
10440;SDS011;5268;49.346;9.522;2022-08-19T06:57:26;18.65;;;16.48;;
10440;SDS011;5268;49.346;9.522;2022-08-19T07:02:31;18.63;;;16.48;;
10440;SDS011;5268;49.346;9.522;2022-08-19T07:07:33;19.73;;;17.63;;
10440;SDS011;5268;49.346;9.522;2022-08-19T07:12:37;18.88;;;16.38;;
10440;SDS011;5268;49.346;9.522;2022-08-19T07:17:40;16.75;;;15.05;;
10440;SDS011;5268;49.346;9.522;2022-08-19T07:22:43;17.92;;;14.18;;
10440;SDS011;5268;49.346;9.522;2022-08-19T07:27:47;17.98;;;14.93;;
10440;SDS011;5268;49.346;9.522;2022-08-19T07:32:50;16.85;;;15.05;;
10440;SDS011;5268;49.346;9.522;2022-08-19T07:37:53;18.33;;;15.10;;
10440;SDS011;5268;49.346;9.522;2022-08-19T07:42:56;17.95;;;15.25;;
10440;SDS011;5268;49.346;9.522;2022-08-19T07:47:58;17.20;;;14.60;;
10440;SDS011;5268;49.346;9.522;2022-08-19T07:53:00;18.13;;;15.25;;
10440;SDS011;5268;49.346;9.522;2022-08-19T07:58:04;15.88;;;14.25;;
10440;SDS011;5268;49.346;9.522;2022-08-19T08:03:06;16.00;;;14.40;;
10440;SDS011;5268;49.346;9.522;2022-08-19T08:08:08;17.15;;;15.27;;
10440;SDS011;5268;49.346;9.522;2022-08-19T08:13:29;16.30;;;14.70;;
10440;SDS011;5268;49.346;9.522;2022-08-19T08:18:31;16.35;;;14.65;;
10440;SDS011;5268;49.346;9.522;2022-08-19T08:23:41;15.90;;;14.30;;
10440;SDS011;5268;49.346;9.522;2022-08-19T08:28:44;15.45;;;13.80;;
10440;SDS011;5268;49.346;9.522;2022-08-19T08:33:47;15.93;;;14.00;;
10440;SDS011;5268;49.346;9.522;2022-08-19T08:38:50;15.68;;;14.13;;
10440;SDS011;5268;49.346;9.522;2022-08-19T08:43:54;16.05;;;14.35;;
10440;SDS011;5268;49.346;9.522;2022-08-19T08:48:58;16.08;;;13.57;;
10440;SDS011;5268;49.346;9.522;2022-08-19T08:54:07;15.02;;;13.57;;
10440;SDS011;5268;49.346;9.522;2022-08-19T08:59:15;16.48;;;13.35;;
10440;SDS011;5268;49.346;9.522;2022-08-19T09:04:23;14.63;;;13.07;;
10440;SDS011;5268;49.346;9.522;2022-08-19T09:09:26;15.20;;;13.60;;
10440;SDS011;5268;49.346;9.522;2022-08-19T09:14:36;15.20;;;12.65;;
10440;SDS011;5268;49.346;9.522;2022-08-19T09:19:47;13.77;;;12.38;;
10440;SDS011;5268;49.346;9.522;2022-08-19T09:24:52;13.32;;;11.95;;
10440;SDS011;5268;49.346;9.522;2022-08-19T09:29:56;13.85;;;12.45;;
10440;SDS011;5268;49.346;9.522;2022-08-19T09:34:57;14.25;;;12.65;;
10440;SDS011;5268;49.346;9.522;2022-08-19T09:40:02;16.88;;;13.65;;
10440;SDS011;5268;49.346;9.522;2022-08-19T09:45:07;14.57;;;11.70;;
10440;SDS011;5268;49.346;9.522;2022-08-19T09:50:10;13.63;;;12.30;;
10440;SDS011;5268;49.346;9.522;2022-08-19T09:55:13;13.20;;;11.80;;
10440;SDS011;5268;49.346;9.522;2022-08-19T10:00:17;11.85;;;10.70;;
10440;SDS011;5268;49.346;9.522;2022-08-19T10:05:20;10.95;;;9.75;;
10440;SDS011;5268;49.346;9.522;2022-08-19T10:10:40;8.80;;;7.95;;
10440;SDS011;5268;49.346;9.522;2022-08-19T10:15:45;7.68;;;6.97;;
10440;SDS011;5268;49.346;9.522;2022-08-19T10:20:47;7.97;;;7.18;;
10440;SDS011;5268;49.346;9.522;2022-08-19T10:25:50;7.55;;;6.82;;
10440;SDS011;5268;49.346;9.522;2022-08-19T10:30:54;11.77;;;8.48;;
10440;SDS011;5268;49.346;9.522;2022-08-19T10:35:58;10.45;;;9.32;;
10440;SDS011;5268;49.346;9.522;2022-08-19T10:41:08;10.45;;;8.82;;
10440;SDS011;5268;49.346;9.522;2022-08-19T10:46:13;10.38;;;9.25;;
10440;SDS011;5268;49.346;9.522;2022-08-19T10:51:16;10.57;;;8.85;;
10440;SDS011;5268;49.346;9.522;2022-08-19T10:56:36;9.60;;;8.60;;
10440;SDS011;5268;49.346;9.522;2022-08-19T11:01:57;11.35;;;8.82;;
10440;SDS011;5268;49.346;9.522;2022-08-19T11:07:01;8.57;;;7.55;;
10440;SDS011;5268;49.346;9.522;2022-08-19T11:12:04;8.50;;;7.47;;
10440;SDS011;5268;49.346;9.522;2022-08-19T11:17:09;7.65;;;6.65;;
10440;SDS011;5268;49.346;9.522;2022-08-19T11:22:13;6.32;;;5.72;;
10440;SDS011;5268;49.346;9.522;2022-08-19T11:27:15;6.20;;;5.60;;
10440;SDS011;5268;49.346;9.522;2022-08-19T11:32:19;5.45;;;4.95;;
10440;SDS011;5268;49.346;9.522;2022-08-19T11:37:21;6.32;;;4.40;;
10440;SDS011;5268;49.346;9.522;2022-08-19T11:42:23;4.97;;;4.20;;
10440;SDS011;5268;49.346;9.522;2022-08-19T11:47:43;5.05;;;4.03;;
10440;SDS011;5268;49.346;9.522;2022-08-19T11:52:46;3.70;;;3.40;;
10440;SDS011;5268;49.346;9.522;2022-08-19T11:57:49;4.03;;;3.03;;
10440;SDS011;5268;49.346;9.522;2022-08-19T12:02:53;4.72;;;3.28;;
10440;SDS011;5268;49.346;9.522;2022-08-19T12:07:55;3.83;;;3.00;;
10440;SDS011;5268;49.346;9.522;2022-08-19T12:12:57;3.10;;;2.80;;
10440;SDS011;5268;49.346;9.522;2022-08-19T12:18:01;3.63;;;3.22;;
10440;SDS011;5268;49.346;9.522;2022-08-19T12:23:04;3.85;;;3.00;;
10440;SDS011;5268;49.346;9.522;2022-08-19T12:28:07;3.20;;;2.88;;
10440;SDS011;5268;49.346;9.522;2022-08-19T12:33:11;3.53;;;2.90;;
10440;SDS011;5268;49.346;9.522;2022-08-19T12:38:13;3.13;;;2.83;;
10440;SDS011;5268;49.346;9.522;2022-08-19T12:43:15;3.00;;;2.80;;
10440;SDS011;5268;49.346;9.522;2022-08-19T12:48:19;3.50;;;3.00;;
10440;SDS011;5268;49.346;9.522;2022-08-19T12:53:20;2.85;;;2.60;;
10440;SDS011;5268;49.346;9.522;2022-08-19T12:58:29;3.08;;;2.78;;
10440;SDS011;5268;49.346;9.522;2022-08-19T13:03:32;2.70;;;2.50;;
10440;SDS011;5268;49.346;9.522;2022-08-19T13:08:35;3.20;;;2.90;;
10440;SDS011;5268;49.346;9.522;2022-08-19T13:13:38;3.20;;;2.90;;
10440;SDS011;5268;49.346;9.522;2022-08-19T13:18:44;3.20;;;2.90;;
10440;SDS011;5268;49.346;9.522;2022-08-19T13:23:47;4.47;;;3.33;;
10440;SDS011;5268;49.346;9.522;2022-08-19T13:28:49;3.63;;;3.33;;
10440;SDS011;5268;49.346;9.522;2022-08-19T13:34:10;3.97;;;3.00;;
10440;SDS011;5268;49.346;9.522;2022-08-19T13:39:13;4.05;;;3.38;;
10440;SDS011;5268;49.346;9.522;2022-08-19T13:44:15;4.03;;;3.20;;
10440;SDS011;5268;49.346;9.522;2022-08-19T13:49:20;8.32;;;7.47;;
10440;SDS011;5268;49.346;9.522;2022-08-19T13:54:23;5.07;;;3.53;;
10440;SDS011;5268;49.346;9.522;2022-08-19T13:59:25;4.05;;;3.63;;
10440;SDS011;5268;49.346;9.522;2022-08-19T14:04:28;4.20;;;3.80;;
10440;SDS011;5268;49.346;9.522;2022-08-19T14:09:30;3.72;;;3.42;;
10440;SDS011;5268;49.346;9.522;2022-08-19T14:14:32;4.20;;;3.80;;
10440;SDS011;5268;49.346;9.522;2022-08-19T14:19:39;5.85;;;4.07;;
10440;SDS011;5268;49.346;9.522;2022-08-19T14:24:41;3.92;;;3.53;;
10440;SDS011;5268;49.346;9.522;2022-08-19T14:29:43;5.18;;;3.50;;
10440;SDS011;5268;49.346;9.522;2022-08-19T14:34:47;4.80;;;3.80;;
10440;SDS011;5268;49.346;9.522;2022-08-19T14:39:49;3.83;;;3.42;;
10440;SDS011;5268;49.346;9.522;2022-08-19T14:44:51;5.65;;;3.70;;
10440;SDS011;5268;49.346;9.522;2022-08-19T14:49:54;5.43;;;3.97;;
10440;SDS011;5268;49.346;9.522;2022-08-19T14:54:56;4.65;;;3.97;;
10440;SDS011;5268;49.346;9.522;2022-08-19T14:59:58;4.40;;;4.00;;
10440;SDS011;5268;49.346;9.522;2022-08-19T15:05:02;4.72;;;3.95;;
10440;SDS011;5268;49.346;9.522;2022-08-19T15:10:05;4.30;;;4.00;;
10440;SDS011;5268;49.346;9.522;2022-08-19T15:15:10;4.38;;;3.92;;
10440;SDS011;5268;49.346;9.522;2022-08-19T15:20:16;5.28;;;4.57;;
10440;SDS011;5268;49.346;9.522;2022-08-19T15:25:20;4.78;;;4.38;;
10440;SDS011;5268;49.346;9.522;2022-08-19T15:30:23;5.20;;;4.70;;
10440;SDS011;5268;49.346;9.522;2022-08-19T15:35:28;4.68;;;4.25;;
10440;SDS011;5268;49.346;9.522;2022-08-19T15:40:30;4.82;;;4.43;;
10440;SDS011;5268;49.346;9.522;2022-08-19T15:45:32;4.88;;;4.38;;
10440;SDS011;5268;49.346;9.522;2022-08-19T15:50:36;4.80;;;4.40;;
10440;SDS011;5268;49.346;9.522;2022-08-19T15:55:41;6.10;;;4.65;;
10440;SDS011;5268;49.346;9.522;2022-08-19T16:00:44;4.63;;;4.22;;
10440;SDS011;5268;49.346;9.522;2022-08-19T16:06:05;4.82;;;4.38;;
10440;SDS011;5268;49.346;9.522;2022-08-19T16:11:25;5.68;;;4.45;;
10440;SDS011;5268;49.346;9.522;2022-08-19T16:16:30;4.50;;;4.03;;
10440;SDS011;5268;49.346;9.522;2022-08-19T16:21:35;7.03;;;4.30;;
10440;SDS011;5268;49.346;9.522;2022-08-19T16:26:39;4.57;;;4.18;;
10440;SDS011;5268;49.346;9.522;2022-08-19T16:31:43;5.00;;;4.40;;
10440;SDS011;5268;49.346;9.522;2022-08-19T16:36:48;8.10;;;4.70;;
10440;SDS011;5268;49.346;9.522;2022-08-19T16:41:50;6.93;;;4.70;;
10440;SDS011;5268;49.346;9.522;2022-08-19T16:46:53;6.28;;;5.20;;
10440;SDS011;5268;49.346;9.522;2022-08-19T16:51:56;5.68;;;4.88;;
10440;SDS011;5268;49.346;9.522;2022-08-19T16:56:58;6.00;;;4.60;;
10440;SDS011;5268;49.346;9.522;2022-08-19T17:02:00;4.57;;;4.18;;
10440;SDS011;5268;49.346;9.522;2022-08-19T17:07:04;5.45;;;4.60;;
10440;SDS011;5268;49.346;9.522;2022-08-19T17:12:06;4.72;;;4.32;;
10440;SDS011;5268;49.346;9.522;2022-08-19T17:17:09;4.80;;;4.38;;
10440;SDS011;5268;49.346;9.522;2022-08-19T17:22:13;4.75;;;4.35;;
10440;SDS011;5268;49.346;9.522;2022-08-19T17:27:15;5.05;;;4.65;;
10440;SDS011;5268;49.346;9.522;2022-08-19T17:32:18;4.82;;;4.43;;
10440;SDS011;5268;49.346;9.522;2022-08-19T17:37:22;5.25;;;4.28;;
10440;SDS011;5268;49.346;9.522;2022-08-19T17:42:24;4.78;;;4.38;;
10440;SDS011;5268;49.346;9.522;2022-08-19T17:47:27;4.82;;;4.40;;
10440;SDS011;5268;49.346;9.522;2022-08-19T17:52:32;4.88;;;4.45;;
10440;SDS011;5268;49.346;9.522;2022-08-19T17:57:35;5.00;;;4.60;;
10440;SDS011;5268;49.346;9.522;2022-08-19T18:02:42;5.18;;;4.78;;
10440;SDS011;5268;49.346;9.522;2022-08-19T18:07:46;5.40;;;4.72;;
10440;SDS011;5268;49.346;9.522;2022-08-19T18:12:50;5.43;;;4.75;;
10440;SDS011;5268;49.346;9.522;2022-08-19T18:17:52;6.70;;;5.30;;
10440;SDS011;5268;49.346;9.522;2022-08-19T18:22:56;5.95;;;5.43;;
10440;SDS011;5268;49.346;9.522;2022-08-19T18:27:59;7.93;;;7.13;;
10440;SDS011;5268;49.346;9.522;2022-08-19T18:33:03;8.00;;;7.30;;
10440;SDS011;5268;49.346;9.522;2022-08-19T18:38:10;6.45;;;5.95;;
10440;SDS011;5268;49.346;9.522;2022-08-19T18:43:31;6.55;;;5.82;;
10440;SDS011;5268;49.346;9.522;2022-08-19T18:48:50;6.13;;;5.50;;
10440;SDS011;5268;49.346;9.522;2022-08-19T18:54:06;7.10;;;6.50;;
10440;SDS011;5268;49.346;9.522;2022-08-19T18:59:09;7.53;;;6.38;;
10440;SDS011;5268;49.346;9.522;2022-08-19T19:04:13;8.93;;;7.10;;
10440;SDS011;5268;49.346;9.522;2022-08-19T19:09:18;9.20;;;8.40;;
10440;SDS011;5268;49.346;9.522;2022-08-19T19:14:22;8.57;;;7.68;;
10440;SDS011;5268;49.346;9.522;2022-08-19T19:19:31;9.50;;;8.50;;
10440;SDS011;5268;49.346;9.522;2022-08-19T19:24:35;9.30;;;8.32;;
10440;SDS011;5268;49.346;9.522;2022-08-19T19:29:38;9.55;;;8.65;;
10440;SDS011;5268;49.346;9.522;2022-08-19T19:34:41;10.13;;;9.13;;
10440;SDS011;5268;49.346;9.522;2022-08-19T19:39:44;10.77;;;9.68;;
10440;SDS011;5268;49.346;9.522;2022-08-19T19:44:47;10.93;;;9.93;;
10440;SDS011;5268;49.346;9.522;2022-08-19T19:49:50;12.23;;;11.02;;
10440;SDS011;5268;49.346;9.522;2022-08-19T19:54:55;10.52;;;9.30;;
10440;SDS011;5268;49.346;9.522;2022-08-19T19:59:57;9.57;;;8.68;;
10440;SDS011;5268;49.346;9.522;2022-08-19T20:04:59;10.20;;;9.20;;
10440;SDS011;5268;49.346;9.522;2022-08-19T20:10:03;10.15;;;9.25;;
10440;SDS011;5268;49.346;9.522;2022-08-19T20:15:06;10.15;;;9.25;;
10440;SDS011;5268;49.346;9.522;2022-08-19T20:20:09;10.00;;;9.00;;
10440;SDS011;5268;49.346;9.522;2022-08-19T20:25:14;10.80;;;9.80;;
10440;SDS011;5268;49.346;9.522;2022-08-19T20:30:19;10.90;;;9.90;;
10440;SDS011;5268;49.346;9.522;2022-08-19T20:35:22;10.50;;;9.50;;
10440;SDS011;5268;49.346;9.522;2022-08-19T20:40:27;10.20;;;9.23;;
10440;SDS011;5268;49.346;9.522;2022-08-19T20:45:29;11.48;;;10.35;;
10440;SDS011;5268;49.346;9.522;2022-08-19T20:50:32;10.75;;;9.45;;
10440;SDS011;5268;49.346;9.522;2022-08-19T20:55:36;12.55;;;10.93;;
10440;SDS011;5268;49.346;9.522;2022-08-19T21:00:39;13.02;;;11.18;;
10440;SDS011;5268;49.346;9.522;2022-08-19T21:05:42;12.32;;;11.07;;
10440;SDS011;5268;49.346;9.522;2022-08-19T21:10:47;12.70;;;10.68;;
10440;SDS011;5268;49.346;9.522;2022-08-19T21:15:51;12.60;;;11.05;;
10440;SDS011;5268;49.346;9.522;2022-08-19T21:20:53;11.98;;;10.77;;
10440;SDS011;5268;49.346;9.522;2022-08-19T21:25:58;11.25;;;10.13;;
